Search for airport 
image banner adimage banner ad
image banner ad

SIBI - Tame Guarujá Heliport

Located in Guarujá, Brazil

ICAO - SIBI, IATA -

Data provided by Airmate  

General information

Coordinates: S10°50'17" W37°11'46"
Elevation is 170 feet MSL.
Magnetic variation is -23° East
View others Airports in Sergipe

Operational data

Special qualification required
Current time UTC:
Current local time:
Weather at : SBAR - Santa Maria ( 21 km )
METAR: SBAR 012000Z 08008KT 9999 VCSH BKN015 OVC037 25/22 Q1008
TAF: TAF SBAR 011520Z 0118/0218 13013KT 8000 SCT022 FEW025TCU TN25/0208Z TX31/0216Z BECMG 0120/0123 12010KT 9999 SCT017 BECMG 0203/0205 08007KT 7000 BECMG 0209/0211 11010KT 8000 BKN017 FEW025TCU BECMG 0215/0218 12015KT 9999 SCT020 RMK PHN
View NOTAMs / SUP AIP / TFR affecting this airport [VIEW]
Communications frequencies: [VIEW]

Runways:

RWY identifierQFULength (ft)Width (ft)SurfaceLDA (ft)
01141059DIRT
19141059DIRT

Airport contact information

Address: Guarujá Brazil

Satellite view of SIBI